Time;durP1;ratioP1;P1;durP2;ratioP2;P2;SDS_P1;SDS_P2;PMS_P1;PMS_P2;Temp;Humidity;BMP_temperature;BMP_pressure;BME280_temperature;BME280_humidity;BME280_pressure;Samples;Min_cycle;Max_cycle;Signal;HPM_P1;HPM_P2
2023/01/19 00:01:26;;;;;;;8.38;4.07;;;4.30;99.90;;;;;;5111334;27;20189;-80
2023/01/19 00:03:52;;;;;;;9.88;4.22;;;4.30;99.90;;;;;;5112450;27;20723;-83
2023/01/19 00:06:18;;;;;;;7.32;3.60;;;4.40;99.90;;;;;;5097103;27;21307;-81
2023/01/19 00:08:44;;;;;;;5.90;3.05;;;4.30;99.90;;;;;;5110095;27;22230;-81
2023/01/19 00:11:11;;;;;;;7.28;3.13;;;4.30;99.90;;;;;;5124315;27;20180;-82
2023/01/19 00:13:38;;;;;;;7.85;3.10;;;4.30;99.90;;;;;;5117057;27;20263;-80
2023/01/19 00:16:05;;;;;;;5.80;2.75;;;4.30;99.90;;;;;;5122249;27;20180;-81
2023/01/19 00:18:31;;;;;;;8.30;2.55;;;4.30;99.90;;;;;;5120371;27;20225;-80
2023/01/19 00:20:57;;;;;;;7.90;2.78;;;4.20;99.90;;;;;;5080208;27;20660;-80
2023/01/19 00:23:22;;;;;;;6.68;2.80;;;4.20;99.90;;;;;;5112596;27;20192;-80
2023/01/19 00:25:50;;;;;;;4.90;2.67;;;4.20;99.90;;;;;;5113429;27;20435;-81
2023/01/19 00:28:18;;;;;;;7.15;2.75;;;4.20;99.90;;;;;;5094683;27;20251;-79
2023/01/19 00:30:44;;;;;;;4.88;2.63;;;4.20;99.90;;;;;;5113867;27;20201;-82
2023/01/19 00:33:14;;;;;;;3.85;2.45;;;4.20;99.90;;;;;;5098144;27;20263;-79
2023/01/19 00:35:43;;;;;;;5.75;2.95;;;4.20;99.90;;;;;;5109056;27;20272;-83
2023/01/19 00:38:11;;;;;;;4.35;2.65;;;4.20;99.90;;;;;;5110773;27;20212;-80
2023/01/19 00:40:36;;;;;;;7.10;2.80;;;4.20;99.90;;;;;;5112389;27;20648;-81
2023/01/19 00:43:03;;;;;;;5.90;3.00;;;4.10;99.90;;;;;;5108043;27;20187;-80
2023/01/19 00:45:30;;;;;;;5.15;2.95;;;4.10;99.90;;;;;;5096737;27;20473;-81
2023/01/19 00:47:56;;;;;;;5.20;2.55;;;4.10;99.90;;;;;;5110403;27;20185;-79
2023/01/19 00:50:28;;;;;;;9.55;2.70;;;4.10;99.90;;;;;;5111019;27;20246;-80
2023/01/19 00:52:55;;;;;;;5.40;2.75;;;4.20;99.90;;;;;;5107071;27;20183;-79
2023/01/19 00:55:22;;;;;;;9.88;3.10;;;4.10;99.90;;;;;;5108358;27;20192;-80
2023/01/19 00:57:48;;;;;;;6.13;3.15;;;4.10;99.90;;;;;;5112913;27;20192;-80
2023/01/19 01:00:16;;;;;;;8.23;2.90;;;4.10;99.90;;;;;;5093447;27;20193;-81
2023/01/19 01:02:43;;;;;;;7.07;3.38;;;4.00;99.90;;;;;;5106405;27;20184;-79
2023/01/19 01:05:09;;;;;;;7.63;3.08;;;4.10;99.90;;;;;;5110297;27;20180;-81
2023/01/19 01:07:43;;;;;;;6.43;3.05;;;4.10;99.90;;;;;;5108938;27;20185;-82
2023/01/19 01:10:19;;;;;;;9.48;3.22;;;4.10;99.90;;;;;;5108710;27;20215;-81
2023/01/19 01:12:45;;;;;;;8.15;2.80;;;4.00;99.90;;;;;;5109228;27;20180;-79
2023/01/19 01:15:15;;;;;;;7.35;2.72;;;4.10;99.90;;;;;;5096511;27;20176;-80
2023/01/19 01:17:46;;;;;;;6.72;2.50;;;4.10;99.90;;;;;;5108034;27;20189;-80
2023/01/19 01:20:17;;;;;;;5.03;2.70;;;4.10;99.90;;;;;;5078489;27;20181;-80
2023/01/19 01:22:49;;;;;;;9.27;2.67;;;4.10;99.90;;;;;;5095658;27;20647;-79
2023/01/19 01:25:18;;;;;;;4.85;2.20;;;4.10;99.90;;;;;;5108410;27;20202;-80
2023/01/19 01:27:43;;;;;;;6.25;2.15;;;4.20;99.90;;;;;;5128906;27;20242;-80
2023/01/19 01:30:11;;;;;;;7.20;2.05;;;4.20;99.90;;;;;;5109917;27;20216;-80
2023/01/19 01:32:37;;;;;;;6.70;1.90;;;4.20;99.90;;;;;;5106399;27;20909;-80
2023/01/19 01:35:04;;;;;;;5.38;1.90;;;4.20;99.90;;;;;;5111607;27;20188;-80
2023/01/19 01:37:29;;;;;;;6.95;1.77;;;4.20;99.90;;;;;;5094807;27;20661;-83
2023/01/19 01:39:55;;;;;;;5.20;1.73;;;4.20;99.90;;;;;;5097623;27;20200;-81
2023/01/19 01:42:27;;;;;;;2.00;1.15;;;4.20;99.90;;;;;;5088252;27;20193;-81
2023/01/19 01:44:59;;;;;;;5.80;1.23;;;4.20;99.90;;;;;;5107498;27;20173;-79
2023/01/19 01:47:31;;;;;;;3.03;1.23;;;4.20;99.90;;;;;;5109362;27;20184;-80
2023/01/19 01:50:17;;;;;;;7.85;1.40;;;4.30;99.90;;;;;;5111006;27;20292;-79
2023/01/19 01:52:48;;;;;;;3.00;1.40;;;4.30;99.90;;;;;;5111352;27;20188;-79
2023/01/19 01:55:14;;;;;;;3.53;1.20;;;4.30;99.90;;;;;;5108046;27;20221;-81
2023/01/19 01:57:45;;;;;;;4.60;1.40;;;4.30;99.90;;;;;;5108565;27;20245;-79
2023/01/19 02:00:12;;;;;;;5.03;1.38;;;4.30;99.90;;;;;;5110109;27;20181;-81
2023/01/19 02:02:50;;;;;;;5.95;1.50;;;4.30;99.90;;;;;;5119247;27;20181;-81
2023/01/19 02:05:21;;;;;;;4.28;2.15;;;4.40;99.90;;;;;;5124561;28;20177;-79
2023/01/19 02:13:38;;;;;;;3.42;2.35;;;4.30;99.90;;;;;;5117021;28;20187;-79
2023/01/19 02:16:09;;;;;;;4.65;2.70;;;4.30;99.90;;;;;;5115436;27;20222;-80
2023/01/19 02:18:36;;;;;;;5.13;3.00;;;4.30;99.90;;;;;;5109941;28;20204;-80
2023/01/19 02:21:13;;;;;;;7.90;3.22;;;4.20;99.90;;;;;;5110844;28;20268;-80
2023/01/19 02:23:48;;;;;;;5.40;3.45;;;4.30;99.90;;;;;;5109483;28;20185;-81
2023/01/19 02:26:41;;;;;;;8.55;3.58;;;4.20;99.90;;;;;;5108510;27;20707;-79
2023/01/19 02:29:23;;;;;;;6.43;3.70;;;4.20;99.90;;;;;;5091280;28;20650;-79
2023/01/19 02:31:48;;;;;;;5.22;3.83;;;4.20;99.90;;;;;;5108383;28;20185;-78
2023/01/19 02:34:17;;;;;;;6.47;3.80;;;4.20;99.90;;;;;;5106600;28;20241;-81
2023/01/19 02:37:05;;;;;;;7.13;3.85;;;4.20;99.90;;;;;;5109092;28;20183;-81
2023/01/19 02:39:41;;;;;;;7.20;4.20;;;4.20;99.90;;;;;;5096114;28;20190;-80
2023/01/19 02:42:20;;;;;;;8.02;4.05;;;4.10;99.90;;;;;;5108625;28;20227;-78
2023/01/19 02:44:49;;;;;;;10.35;3.90;;;4.10;99.90;;;;;;5114106;27;20176;-78
2023/01/19 02:47:15;;;;;;;6.10;4.38;;;4.10;99.90;;;;;;5110364;27;20181;-80
2023/01/19 02:49:41;;;;;;;5.00;4.28;;;4.10;99.90;;;;;;5110861;27;20234;-79
2023/01/19 02:52:14;;;;;;;5.72;3.92;;;4.10;99.90;;;;;;5131728;27;20594;-81
2023/01/19 02:55:00;;;;;;;8.27;4.10;;;4.10;99.90;;;;;;5113827;27;20223;-82
2023/01/19 02:57:50;;;;;;;6.45;3.80;;;4.00;99.90;;;;;;5112079;27;20168;-80
2023/01/19 03:00:19;;;;;;;5.95;3.90;;;4.00;99.90;;;;;;5112370;27;20184;-79
2023/01/19 03:02:51;;;;;;;5.13;3.35;;;4.00;99.90;;;;;;5113778;27;20276;-78
2023/01/19 03:05:50;;;;;;;4.68;3.35;;;4.00;99.90;;;;;;5112430;27;20176;-80
2023/01/19 03:08:45;;;;;;;5.03;3.38;;;4.00;99.90;;;;;;5114676;27;20188;-78
2023/01/19 03:11:13;;;;;;;5.60;4.05;;;4.00;99.90;;;;;;5110918;27;20188;-79
2023/01/19 03:14:00;;;;;;;7.30;3.92;;;4.00;99.90;;;;;;5113205;27;20189;-82
2023/01/19 03:16:41;;;;;;;4.85;3.60;;;4.00;99.90;;;;;;5112046;27;20177;-80
2023/01/19 03:19:09;;;;;;;5.03;3.55;;;4.00;99.90;;;;;;5112081;27;20202;-81
2023/01/19 03:21:38;;;;;;;4.68;3.47;;;4.00;99.90;;;;;;5110891;27;20189;-80
2023/01/19 03:24:07;;;;;;;6.82;4.05;;;4.00;99.90;;;;;;5113699;27;20176;-79
2023/01/19 03:26:39;;;;;;;5.85;3.78;;;3.90;99.90;;;;;;5110275;27;20285;-79
2023/01/19 03:29:08;;;;;;;5.60;4.10;;;4.00;99.90;;;;;;5109864;27;20238;-79
2023/01/19 03:31:35;;;;;;;6.82;3.92;;;4.00;99.90;;;;;;5098212;27;20200;-79
2023/01/19 03:34:05;;;;;;;6.25;3.60;;;4.00;99.90;;;;;;5112335;27;20181;-79
2023/01/19 03:36:33;;;;;;;4.70;3.70;;;4.00;99.90;;;;;;5111244;27;20172;-80
2023/01/19 03:39:01;;;;;;;5.57;4.28;;;3.90;99.90;;;;;;5111300;27;20199;-80
2023/01/19 03:41:29;;;;;;;6.20;4.07;;;3.90;99.90;;;;;;5109885;27;20196;-78
2023/01/19 03:43:55;;;;;;;6.88;4.00;;;3.90;99.90;;;;;;5112277;27;20191;-79
2023/01/19 03:46:23;;;;;;;6.13;3.97;;;4.00;99.90;;;;;;5110885;27;20184;-78
2023/01/19 03:48:49;;;;;;;8.77;4.25;;;3.90;99.90;;;;;;5113769;27;20673;-79
2023/01/19 03:51:16;;;;;;;5.35;3.97;;;4.00;99.90;;;;;;5111675;27;20221;-80
2023/01/19 03:53:42;;;;;;;7.75;4.72;;;4.00;99.90;;;;;;5112438;27;20225;-79
2023/01/19 03:56:20;;;;;;;8.32;4.40;;;3.90;99.90;;;;;;5115198;27;20189;-81
2023/01/19 03:58:46;;;;;;;8.38;4.38;;;4.00;99.90;;;;;;5109633;27;20267;-83
2023/01/19 04:01:13;;;;;;;9.52;4.30;;;4.00;99.90;;;;;;5108641;27;20667;-79
2023/01/19 04:03:40;;;;;;;6.80;4.90;;;4.00;99.90;;;;;;5113199;27;20200;-81
2023/01/19 04:06:07;;;;;;;7.47;5.03;;;4.00;99.90;;;;;;5110054;27;20189;-79
2023/01/19 04:08:33;;;;;;;8.77;4.90;;;4.00;99.90;;;;;;5111044;27;20177;-82
2023/01/19 04:10:58;;;;;;;9.38;4.78;;;4.00;99.90;;;;;;5112325;27;20200;-80
2023/01/19 04:13:27;;;;;;;6.50;4.80;;;4.00;99.90;;;;;;5115472;27;20188;-80
2023/01/19 04:15:52;;;;;;;7.55;4.55;;;4.00;99.90;;;;;;5114005;27;20184;-79
2023/01/19 04:18:18;;;;;;;12.10;4.80;;;4.10;99.90;;;;;;5095414;27;20197;-78
2023/01/19 04:20:44;;;;;;;8.52;5.00;;;4.10;99.90;;;;;;5109771;27;20436;-79
2023/01/19 04:23:10;;;;;;;9.05;4.68;;;4.10;99.90;;;;;;5110214;27;20623;-78
2023/01/19 04:25:36;;;;;;;7.63;5.15;;;4.10;99.90;;;;;;5112639;27;20722;-78
2023/01/19 04:28:01;;;;;;;7.75;4.75;;;4.10;99.90;;;;;;5112839;27;20297;-78
2023/01/19 04:30:27;;;;;;;8.20;4.60;;;4.10;99.90;;;;;;5110270;27;20786;-81
2023/01/19 04:32:55;;;;;;;9.27;4.88;;;4.10;99.90;;;;;;5109975;27;20558;-80
2023/01/19 04:35:21;;;;;;;11.68;5.55;;;4.10;99.90;;;;;;5108624;27;20204;-80
2023/01/19 04:37:47;;;;;;;5.60;4.55;;;4.00;99.90;;;;;;5093849;27;20195;-80
2023/01/19 04:40:13;;;;;;;10.77;5.55;;;4.10;99.90;;;;;;5112932;27;20544;-81
2023/01/19 04:42:42;;;;;;;11.45;5.30;;;4.10;99.90;;;;;;5093740;27;20189;-78
2023/01/19 04:45:09;;;;;;;10.38;5.10;;;4.10;99.90;;;;;;5110002;27;21413;-79
2023/01/19 04:47:35;;;;;;;9.10;4.90;;;4.10;99.90;;;;;;5109687;27;20611;-80
2023/01/19 04:50:00;;;;;;;8.65;4.82;;;4.10;99.90;;;;;;5109752;27;20205;-81
2023/01/19 04:52:33;;;;;;;11.40;4.88;;;4.00;99.90;;;;;;5111850;27;20649;-79
2023/01/19 04:55:04;;;;;;;7.93;4.88;;;4.00;99.90;;;;;;5108290;27;20227;-82
2023/01/19 04:57:30;;;;;;;8.90;4.93;;;4.10;99.90;;;;;;5107033;27;20184;-80
2023/01/19 04:59:56;;;;;;;9.35;4.57;;;4.00;99.90;;;;;;5109902;27;20188;-79
2023/01/19 05:02:23;;;;;;;10.77;4.88;;;4.00;99.90;;;;;;5095289;27;20182;-79
2023/01/19 05:04:49;;;;;;;9.80;4.90;;;4.00;99.90;;;;;;5097358;27;20200;-81
2023/01/19 05:07:15;;;;;;;7.15;4.22;;;3.90;99.90;;;;;;5108709;27;20585;-79
2023/01/19 05:09:40;;;;;;;8.80;4.47;;;4.00;99.90;;;;;;5095326;27;20250;-81
2023/01/19 05:12:07;;;;;;;6.47;3.67;;;4.00;99.90;;;;;;5107687;27;20197;-79
2023/01/19 05:14:33;;;;;;;8.00;4.28;;;4.00;99.90;;;;;;5115078;27;20185;-80
2023/01/19 05:16:59;;;;;;;6.90;4.18;;;4.00;99.90;;;;;;5107873;27;20180;-78
2023/01/19 05:19:25;;;;;;;7.45;3.75;;;4.10;99.90;;;;;;5106541;27;20275;-78
2023/01/19 05:21:51;;;;;;;10.95;3.78;;;4.00;99.90;;;;;;5093628;27;20189;-80
2023/01/19 05:24:17;;;;;;;8.35;3.65;;;4.00;99.90;;;;;;5110367;27;20189;-79
2023/01/19 05:26:43;;;;;;;7.80;3.70;;;4.10;99.90;;;;;;5108210;27;20188;-80
2023/01/19 05:29:09;;;;;;;12.18;3.97;;;4.00;99.90;;;;;;5092171;27;20593;-79
2023/01/19 05:31:35;;;;;;;8.48;3.55;;;4.10;99.90;;;;;;5076114;28;20193;-80
2023/01/19 05:34:02;;;;;;;10.73;3.97;;;4.10;99.90;;;;;;5092183;27;20203;-82
2023/01/19 05:36:28;;;;;;;9.48;3.70;;;4.00;99.90;;;;;;5099656;27;20192;-79
2023/01/19 05:38:54;;;;;;;7.72;3.80;;;4.10;99.90;;;;;;5110355;27;20204;-81
2023/01/19 05:41:19;;;;;;;8.60;3.22;;;4.10;99.90;;;;;;5108535;27;20184;-81
2023/01/19 05:43:45;;;;;;;8.15;3.00;;;4.10;99.90;;;;;;5110978;27;20184;-83
2023/01/19 05:46:11;;;;;;;8.15;2.38;;;4.10;99.90;;;;;;5089855;27;20192;-79
2023/01/19 05:48:37;;;;;;;6.32;2.25;;;4.10;99.90;;;;;;5111064;27;20269;-79
2023/01/19 05:51:04;;;;;;;4.53;1.85;;;4.10;99.90;;;;;;5107151;27;20252;-80
2023/01/19 05:53:30;;;;;;;8.10;1.55;;;4.10;99.90;;;;;;5108774;27;20303;-78
2023/01/19 05:56:04;;;;;;;5.57;1.20;;;4.10;99.90;;;;;;5107087;27;20181;-76
2023/01/19 05:58:30;;;;;;;5.10;1.38;;;4.10;99.90;;;;;;5108560;27;20639;-75
2023/01/19 06:01:00;;;;;;;6.80;1.65;;;4.20;99.90;;;;;;5108126;27;20196;-78
2023/01/19 06:03:26;;;;;;;6.75;1.35;;;4.10;99.90;;;;;;5111162;27;20353;-81
2023/01/19 06:05:51;;;;;;;6.03;1.23;;;4.20;99.90;;;;;;5112323;27;21413;-82
2023/01/19 06:08:17;;;;;;;7.28;1.45;;;4.10;99.90;;;;;;5096466;28;20188;-79
2023/01/19 06:10:43;;;;;;;6.13;1.30;;;4.20;99.90;;;;;;5108999;28;20204;-78
2023/01/19 06:13:10;;;;;;;6.68;1.13;;;4.20;99.90;;;;;;5109096;28;20292;-79
2023/01/19 06:15:36;;;;;;;4.45;1.30;;;4.30;99.90;;;;;;5111209;28;20192;-82
2023/01/19 06:18:02;;;;;;;5.93;1.25;;;4.30;99.90;;;;;;5109903;27;20306;-78
2023/01/19 06:20:27;;;;;;;7.03;1.10;;;4.30;99.90;;;;;;5115806;27;20275;-78
2023/01/19 06:22:56;;;;;;;4.50;1.10;;;4.30;99.90;;;;;;5112815;27;20180;-79
2023/01/19 06:25:22;;;;;;;7.22;1.20;;;4.30;99.90;;;;;;5115036;27;20270;-81
2023/01/19 06:27:48;;;;;;;5.80;0.93;;;4.30;99.90;;;;;;5112155;27;20189;-81
2023/01/19 06:30:14;;;;;;;6.93;1.10;;;4.40;99.90;;;;;;5116461;27;20219;-79
2023/01/19 06:32:39;;;;;;;5.60;1.00;;;4.40;99.90;;;;;;5110028;27;20238;-79
2023/01/19 06:35:06;;;;;;;5.75;1.20;;;4.40;99.90;;;;;;5115379;27;20181;-80
2023/01/19 06:37:32;;;;;;;6.00;1.33;;;4.40;99.90;;;;;;5113425;27;20241;-78
2023/01/19 06:39:58;;;;;;;5.18;1.30;;;4.40;99.90;;;;;;5114527;27;20785;-79
2023/01/19 06:42:24;;;;;;;11.25;1.35;;;4.50;99.90;;;;;;5112042;27;20632;-80
2023/01/19 06:44:50;;;;;;;5.18;1.27;;;4.40;99.90;;;;;;5113278;27;20181;-79
2023/01/19 06:47:15;;;;;;;6.22;1.27;;;4.40;99.90;;;;;;5111755;27;20185;-78
2023/01/19 06:49:41;;;;;;;5.93;1.30;;;4.40;99.90;;;;;;5133568;27;20204;-81
2023/01/19 06:52:14;;;;;;;7.78;1.50;;;4.50;99.90;;;;;;5113522;27;20197;-78
2023/01/19 06:54:42;;;;;;;9.05;1.60;;;4.50;99.90;;;;;;5112847;27;20220;-81
2023/01/19 06:57:08;;;;;;;8.07;1.70;;;4.40;99.90;;;;;;5092285;27;20193;-78
2023/01/19 06:59:34;;;;;;;9.45;1.88;;;4.50;99.90;;;;;;5113092;27;20176;-78
2023/01/19 07:01:59;;;;;;;11.18;1.58;;;4.40;99.90;;;;;;5110358;27;20204;-81
2023/01/19 07:04:25;;;;;;;14.80;2.13;;;4.40;99.90;;;;;;5097489;27;20196;-79
2023/01/19 07:06:51;;;;;;;11.15;1.75;;;4.40;99.90;;;;;;5112798;27;20200;-78
2023/01/19 07:09:19;;;;;;;10.55;1.90;;;4.40;99.90;;;;;;5099761;27;20611;-79
2023/01/19 07:11:46;;;;;;;7.80;1.63;;;4.30;99.90;;;;;;5113857;27;20272;-77
2023/01/19 07:14:12;;;;;;;8.90;1.67;;;4.30;99.90;;;;;;5112114;27;20185;-78
2023/01/19 07:16:37;;;;;;;8.77;1.73;;;4.30;99.90;;;;;;5108933;27;20181;-80
2023/01/19 07:19:03;;;;;;;10.32;1.58;;;4.30;99.90;;;;;;5111198;27;20245;-80
2023/01/19 07:21:29;;;;;;;10.00;1.63;;;4.30;99.90;;;;;;5114016;27;20181;-80
2023/01/19 07:23:55;;;;;;;8.27;1.25;;;4.30;99.90;;;;;;5110992;27;20314;-81
2023/01/19 07:26:23;;;;;;;9.48;1.33;;;4.30;99.90;;;;;;5097069;27;20211;-79
2023/01/19 07:28:53;;;;;;;10.90;1.70;;;4.30;99.90;;;;;;5110962;27;20180;-81
2023/01/19 07:31:19;;;;;;;8.57;1.38;;;4.30;99.90;;;;;;5091287;27;20253;-81
2023/01/19 07:33:45;;;;;;;9.00;1.80;;;4.30;99.90;;;;;;5113492;27;20270;-80
2023/01/19 07:36:11;;;;;;;8.77;1.55;;;4.40;99.90;;;;;;5112559;27;20185;-78
2023/01/19 07:38:37;;;;;;;13.80;1.95;;;4.40;99.90;;;;;;5110297;27;20185;-79
2023/01/19 07:41:04;;;;;;;8.70;1.42;;;4.40;99.90;;;;;;5111677;27;20195;-83
2023/01/19 07:43:31;;;;;;;16.27;1.85;;;4.40;99.90;;;;;;5090980;27;20173;-81
2023/01/19 07:45:58;;;;;;;17.20;1.75;;;4.40;99.90;;;;;;5108317;27;21126;-80
2023/01/19 07:48:24;;;;;;;14.32;1.95;;;4.40;99.90;;;;;;5113676;27;20278;-78
2023/01/19 07:50:50;;;;;;;20.02;2.28;;;4.40;99.90;;;;;;5097835;27;20364;-82
2023/01/19 07:53:15;;;;;;;12.30;1.75;;;4.40;99.90;;;;;;5111210;27;20188;-78
2023/01/19 07:55:42;;;;;;;14.13;1.90;;;4.40;99.90;;;;;;5095653;27;20224;-79
2023/01/19 07:58:07;;;;;;;15.55;2.08;;;4.50;99.90;;;;;;5108879;27;20655;-83
2023/01/19 08:00:36;;;;;;;12.15;1.75;;;4.50;99.90;;;;;;5110140;27;21128;-81
2023/01/19 08:03:02;;;;;;;18.80;1.83;;;4.50;99.90;;;;;;5114457;27;20548;-78
2023/01/19 08:05:28;;;;;;;15.85;2.17;;;4.50;99.90;;;;;;5095436;27;20586;-79
2023/01/19 08:07:59;;;;;;;13.77;1.88;;;4.60;99.90;;;;;;5110782;27;20201;-80
2023/01/19 08:10:26;;;;;;;15.80;1.85;;;4.60;99.90;;;;;;5109773;27;20216;-78
2023/01/19 08:12:56;;;;;;;12.13;2.03;;;4.60;99.90;;;;;;5095858;27;20524;-78
2023/01/19 08:15:23;;;;;;;11.35;1.90;;;4.70;99.90;;;;;;5114443;27;20183;-85
2023/01/19 08:17:56;;;;;;;18.13;2.88;;;4.70;99.90;;;;;;5099129;27;20261;-81
2023/01/19 08:20:22;;;;;;;10.35;1.85;;;4.70;99.90;;;;;;5112507;27;20207;-82
2023/01/19 08:22:48;;;;;;;14.27;1.73;;;4.80;99.90;;;;;;5110251;27;20295;-84
2023/01/19 08:25:14;;;;;;;14.90;1.50;;;4.80;99.90;;;;;;5114073;27;20193;-84
2023/01/19 08:27:40;;;;;;;12.70;1.92;;;4.90;99.90;;;;;;5110787;27;20191;-86
2023/01/19 08:30:07;;;;;;;11.68;1.80;;;4.90;99.90;;;;;;5096666;27;20354;-78
2023/01/19 08:32:32;;;;;;;10.77;1.25;;;4.90;99.90;;;;;;5112335;27;20223;-79
2023/01/19 08:34:58;;;;;;;17.60;2.17;;;5.00;99.90;;;;;;5097728;27;20192;-81
2023/01/19 08:37:24;;;;;;;16.90;2.15;;;5.00;99.90;;;;;;5092259;27;20184;-79
2023/01/19 08:39:52;;;;;;;10.85;1.80;;;5.00;99.90;;;;;;5097699;27;21569;-79
2023/01/19 08:42:18;;;;;;;14.40;1.80;;;5.10;99.90;;;;;;5108322;27;20316;-79
2023/01/19 08:44:43;;;;;;;9.45;1.80;;;5.10;99.90;;;;;;5094662;27;20305;-79
2023/01/19 08:47:09;;;;;;;10.48;1.85;;;5.20;99.90;;;;;;5111147;27;20172;-76
2023/01/19 08:49:35;;;;;;;15.95;1.98;;;5.30;99.90;;;;;;5117062;27;20266;-77
2023/01/19 08:52:01;;;;;;;13.27;1.98;;;5.60;99.90;;;;;;5108017;27;20216;-76
2023/01/19 08:54:27;;;;;;;12.20;1.80;;;6.30;99.90;;;;;;5112720;27;21587;-82
2023/01/19 08:56:53;;;;;;;12.65;1.77;;;7.20;99.90;;;;;;5097588;27;20645;-79
2023/01/19 08:59:19;;;;;;;10.70;1.73;;;8.10;99.90;;;;;;5108993;27;20829;-80
2023/01/19 09:01:45;;;;;;;10.90;1.83;;;9.00;99.90;;;;;;5105417;27;20197;-77
2023/01/19 09:04:10;;;;;;;16.90;2.05;;;9.80;99.90;;;;;;5114853;27;20218;-78
2023/01/19 09:06:36;;;;;;;14.65;2.50;;;10.50;99.90;;;;;;5109166;27;20195;-82
2023/01/19 09:09:02;;;;;;;21.48;2.83;;;11.10;99.90;;;;;;5111504;27;20229;-79
2023/01/19 09:11:29;;;;;;;11.75;2.10;;;11.50;99.90;;;;;;5107934;27;20311;-81
2023/01/19 09:13:55;;;;;;;30.30;2.83;;;11.70;99.90;;;;;;5110103;27;20185;-78
2023/01/19 09:16:21;;;;;;;14.70;2.70;;;11.50;99.90;;;;;;5108102;27;20561;-79
2023/01/19 09:18:47;;;;;;;16.95;2.60;;;11.00;99.90;;;;;;5110282;27;20265;-81
2023/01/19 09:21:13;;;;;;;14.85;2.35;;;10.40;99.90;;;;;;5091820;27;20192;-78
2023/01/19 09:23:39;;;;;;;14.18;2.40;;;9.80;99.90;;;;;;5096492;27;20632;-80
2023/01/19 09:26:06;;;;;;;18.55;2.40;;;9.30;99.90;;;;;;5108767;27;20176;-78
2023/01/19 09:28:32;;;;;;;12.15;2.40;;;8.90;99.90;;;;;;5111392;27;20261;-83
2023/01/19 09:30:58;;;;;;;14.70;2.40;;;8.50;99.90;;;;;;5110841;27;20212;-80
2023/01/19 09:33:24;;;;;;;17.60;2.70;;;8.10;99.90;;;;;;5094126;27;20283;-78
2023/01/19 09:35:50;;;;;;;20.58;2.75;;;7.90;99.90;;;;;;5106447;27;20181;-83
2023/01/19 09:38:17;;;;;;;10.63;1.90;;;7.70;99.90;;;;;;5071459;27;20652;-78
2023/01/19 09:40:48;;;;;;;15.88;2.83;;;7.50;99.90;;;;;;5109549;27;20667;-79
2023/01/19 09:43:35;;;;;;;20.48;2.50;;;7.40;99.90;;;;;;5109093;27;20283;-78
2023/01/19 09:46:09;;;;;;;7.07;1.88;;;7.40;99.90;;;;;;5107171;27;20193;-79
2023/01/19 09:48:35;;;;;;;9.77;1.80;;;7.50;99.90;;;;;;5110731;27;20196;-81
2023/01/19 09:51:09;;;;;;;15.32;2.00;;;7.80;99.90;;;;;;5108298;27;20699;-78
2023/01/19 09:54:12;;;;;;;14.27;2.42;;;8.20;99.90;;;;;;5108838;27;20485;-81
2023/01/19 09:56:38;;;;;;;14.40;2.00;;;8.80;99.90;;;;;;5108961;27;20180;-80
2023/01/19 09:59:25;;;;;;;8.15;1.65;;;9.40;99.90;;;;;;5108760;27;20559;-78
2023/01/19 10:02:17;;;;;;;9.45;1.98;;;9.90;99.90;;;;;;5108596;27;21360;-79
2023/01/19 10:04:52;;;;;;;15.63;2.30;;;10.40;99.90;;;;;;5112239;27;20215;-79
2023/01/19 10:07:51;;;;;;;13.82;2.63;;;10.90;99.90;;;;;;5106717;27;20278;-80
2023/01/19 10:10:29;;;;;;;11.68;2.10;;;11.20;99.90;;;;;;5093159;28;20295;-80
2023/01/19 10:13:09;;;;;;;9.77;1.73;;;11.50;99.90;;;;;;5111245;28;20188;-80
2023/01/19 10:15:52;;;;;;;11.70;2.35;;;11.70;99.90;;;;;;5111027;27;20255;-80
2023/01/19 10:18:21;;;;;;;7.30;1.83;;;12.00;99.90;;;;;;5105963;28;20213;-79
2023/01/19 10:20:51;;;;;;;14.10;2.42;;;12.20;99.90;;;;;;5107591;28;22636;-82
2023/01/19 10:23:39;;;;;;;14.77;2.05;;;12.30;99.90;;;;;;5112978;28;20286;-78
2023/01/19 10:26:19;;;;;;;13.85;2.25;;;12.50;99.90;;;;;;5111734;28;20181;-78
2023/01/19 10:28:47;;;;;;;13.32;2.25;;;12.60;99.90;;;;;;5109452;28;20315;-78
2023/01/19 10:31:16;;;;;;;11.65;2.10;;;12.70;99.90;;;;;;5109848;28;20184;-81
2023/01/19 10:33:42;;;;;;;10.90;2.00;;;12.90;99.90;;;;;;5111082;28;20173;-80
2023/01/19 10:36:28;;;;;;;12.13;2.30;;;13.00;99.90;;;;;;5110589;27;20218;-82
2023/01/19 10:38:54;;;;;;;16.10;2.33;;;13.10;99.90;;;;;;5114422;28;20204;-81
2023/01/19 10:41:39;;;;;;;10.45;2.10;;;13.20;99.90;;;;;;5089749;28;20272;-80
2023/01/19 10:44:08;;;;;;;10.07;1.73;;;13.30;99.90;;;;;;5110328;28;20177;-81
2023/01/19 10:46:48;;;;;;;17.45;2.47;;;13.30;99.90;;;;;;5096357;28;20266;-83
2023/01/19 10:49:27;;;;;;;17.42;2.40;;;13.40;99.90;;;;;;5108070;28;20834;-81
2023/01/19 10:51:54;;;;;;;10.57;1.80;;;13.50;99.90;;;;;;5108215;27;20184;-80
2023/01/19 10:54:21;;;;;;;13.77;2.33;;;13.50;99.90;;;;;;5110010;28;20243;-82
2023/01/19 10:56:54;;;;;;;14.32;2.75;;;13.50;99.90;;;;;;5106795;28;20199;-80
2023/01/19 10:59:32;;;;;;;8.55;2.53;;;13.60;99.90;;;;;;5112180;28;20182;-82
2023/01/19 11:02:42;;;;;;;17.20;2.25;;;13.60;99.90;;;;;;5110062;28;20168;-79
2023/01/19 11:05:26;;;;;;;13.00;2.25;;;13.70;99.90;;;;;;5111256;27;20196;-80
2023/01/19 11:07:52;;;;;;;18.80;2.45;;;13.80;99.90;;;;;;5110728;27;20191;-84
2023/01/19 11:10:28;;;;;;;10.60;1.83;;;13.80;99.50;;;;;;5114593;27;21117;-80
2023/01/19 11:13:14;;;;;;;17.52;2.70;;;13.90;98.70;;;;;;5094602;27;20181;-81
2023/01/19 11:15:43;;;;;;;10.57;2.17;;;13.90;98.50;;;;;;5114587;27;20257;-80
2023/01/19 11:18:39;;;;;;;10.35;2.00;;;14.00;97.70;;;;;;5110794;27;20189;-83
2023/01/19 11:21:16;;;;;;;17.95;2.10;;;13.90;96.10;;;;;;5099202;27;20192;-81
2023/01/19 11:23:52;;;;;;;10.13;2.08;;;13.90;97.00;;;;;;5112157;27;20172;-81
2023/01/19 11:26:48;;;;;;;9.77;1.88;;;13.70;96.60;;;;;;5108978;27;20208;-82
2023/01/19 11:29:21;;;;;;;10.82;1.70;;;13.40;96.20;;;;;;5113706;27;20201;-83
2023/01/19 11:31:53;;;;;;;16.55;2.13;;;13.20;96.90;;;;;;5113418;27;20233;-83
2023/01/19 11:34:34;;;;;;;15.27;2.10;;;13.10;97.30;;;;;;5110804;27;20227;-82
2023/01/19 11:37:28;;;;;;;14.45;1.95;;;13.10;97.40;;;;;;5109643;27;20263;-84
2023/01/19 11:39:59;;;;;;;11.65;1.70;;;13.30;96.00;;;;;;5108064;27;20217;-83
2023/01/19 11:42:27;;;;;;;13.60;1.80;;;13.40;96.90;;;;;;5109689;27;20176;-80
2023/01/19 11:45:13;;;;;;;14.82;2.45;;;13.40;96.50;;;;;;5113250;27;20360;-81
2023/01/19 11:47:39;;;;;;;11.25;2.10;;;13.40;96.40;;;;;;5110842;27;20192;-82
2023/01/19 11:50:43;;;;;;;20.75;2.30;;;13.60;96.10;;;;;;5111974;27;20236;-80
2023/01/19 11:53:17;;;;;;;15.93;2.20;;;13.50;95.70;;;;;;5083131;27;20215;-84
2023/01/19 11:56:12;;;;;;;13.35;2.00;;;13.30;95.70;;;;;;5116552;27;20216;-83
2023/01/19 11:58:41;;;;;;;15.77;2.10;;;13.10;95.10;;;;;;5115519;27;20223;-81
2023/01/19 12:01:23;;;;;;;10.52;2.50;;;12.90;95.90;;;;;;5111808;27;20241;-82
2023/01/19 12:04:16;;;;;;;8.23;1.83;;;12.70;96.20;;;;;;5101943;27;20181;-81
2023/01/19 12:06:46;;;;;;;12.07;1.92;;;12.70;96.00;;;;;;5113266;27;20181;-81
2023/01/19 12:09:19;;;;;;;8.15;1.85;;;12.60;95.80;;;;;;5117284;27;20212;-81
2023/01/19 12:11:57;;;;;;;10.98;1.70;;;12.40;95.80;;;;;;5117094;27;20199;-84
2023/01/19 12:14:30;;;;;;;7.18;1.40;;;12.10;95.60;;;;;;5112307;27;20180;-84
2023/01/19 12:16:59;;;;;;;10.68;1.60;;;11.80;96.00;;;;;;5110134;27;21324;-83
2023/01/19 12:19:37;;;;;;;11.50;1.42;;;11.50;96.40;;;;;;5097599;27;20189;-83
2023/01/19 12:22:04;;;;;;;9.20;1.30;;;11.30;96.80;;;;;;5111385;27;20181;-85
2023/01/19 12:24:40;;;;;;;6.88;1.40;;;11.10;96.90;;;;;;5098484;27;20239;-81
2023/01/19 12:27:17;;;;;;;14.27;1.77;;;10.90;97.20;;;;;;5109882;27;20241;-83
2023/01/19 12:29:45;;;;;;;10.90;1.83;;;10.70;97.40;;;;;;5111119;27;20510;-82
2023/01/19 12:32:15;;;;;;;14.07;1.85;;;10.40;97.90;;;;;;5098948;27;20279;-82
2023/01/19 12:34:50;;;;;;;9.65;2.00;;;10.20;97.80;;;;;;5094909;27;20181;-82
2023/01/19 12:37:42;;;;;;;7.28;1.63;;;10.10;97.90;;;;;;5115034;27;20274;-84
2023/01/19 12:40:27;;;;;;;12.23;1.70;;;10.10;98.40;;;;;;5114327;27;20191;-85
2023/01/19 12:43:03;;;;;;;14.48;1.90;;;10.30;98.50;;;;;;5111132;27;20476;-81
2023/01/19 12:45:32;;;;;;;9.45;1.40;;;10.30;98.40;;;;;;5111333;27;20199;-82
2023/01/19 12:47:58;;;;;;;15.30;1.67;;;10.40;98.20;;;;;;5110989;27;20170;-83
2023/01/19 12:50:25;;;;;;;8.30;1.38;;;10.50;98.20;;;;;;5110005;27;20220;-81
2023/01/19 12:53:02;;;;;;;9.48;1.45;;;10.50;98.00;;;;;;5113311;27;20193;-81
2023/01/19 12:55:36;;;;;;;11.85;1.70;;;10.60;98.20;;;;;;5112076;27;20231;-84
2023/01/19 12:58:23;;;;;;;9.52;1.70;;;10.70;98.00;;;;;;5110356;27;20182;-80
2023/01/19 13:01:09;;;;;;;14.55;1.60;;;10.80;97.20;;;;;;5111554;27;20189;-83
2023/01/19 13:03:57;;;;;;;13.20;1.52;;;10.90;97.10;;;;;;5111706;27;20181;-81
2023/01/19 13:06:48;;;;;;;6.43;1.48;;;10.90;96.70;;;;;;5110714;27;20649;-83
2023/01/19 13:09:28;;;;;;;7.18;1.30;;;10.80;96.70;;;;;;5113229;27;20258;-81
2023/01/19 13:12:30;;;;;;;9.25;1.40;;;10.90;96.80;;;;;;5109783;27;20181;-85
2023/01/19 13:15:33;;;;;;;8.55;1.65;;;10.80;96.50;;;;;;5048342;28;20649;-81